Osmond, NE

5:55 PM CST on December 28, 2014 (GMT -0600)
Hogendorn Hill | Change Station
CLOSE
Current Station
Personal Weather Station
Location: Pierce, NE
Elevation: 1680 ft
Nearby Weather Stations

Elev 1680 ft 42.19 °N, 97.46 °W | Updated 17 seconds ago

Overcast
Overcast
19.4 °F
Feels Like 10 °F
N
6.9
Wind Variable Wind from SW
Gusts 7.6 mph

Today
High -- | Low -- °F
--% Chance of Precip.
Yesterday
High -- | Low -- °F
Precip. -- in
7:59 AM 5:06 PM
First Quarter, 52% visible
Pressure 30.19 in
Visibility 10.0 miles
Clouds Few 8000 ft
Mostly Cloudy 10000 ft
Overcast 12000 ft
Windchill 10 °F
Dew Point 17 °F
Humidity 89%
Rainfall 0.00 in
Snow Depth Not available.
UV 0 out of 12
Pollen .10 out of 12
Air Quality Not available.
Flu Activity Not available.
METAR KOFK 282256Z AUTO 07005KT 10SM FEW080 BKN100 OVC120 M05/M09 A3010 RMK AO2 SLP222 T10501089

More Conditions Fewer Conditions

Pressure 30.19 in
Visibility 10.0 miles
Clouds Few 8000 ft
Mostly Cloudy 10000 ft
Overcast 12000 ft
Windchill 10 °F
Dew Point 17 °F
Humidity 89%
Rainfall 0.00 in
Snow Depth Not available.
UV 0 out of 12
Pollen .10 out of 12
Air Quality Not available.
Flu Activity Not available.
METAR KOFK 282256Z AUTO 07005KT 10SM FEW080 BKN100 OVC120 M05/M09 A3010 RMK AO2 SLP222 T10501089

More Conditions Fewer Conditions

10-Day Weather Forecast

Almanac

Astronomy

Dec. 28, 2014 Rise Set
Actual Time
Civil Twilight
Nautical Twilight
Astronomical Twilight
Moon
Length of Visible Light
Length of Day
Tomorrow will be .
, % of the Moon is Illuminated

Today's Extremes

State Highs State Lows

Community

WunderPhotos

Upload Photos

1,781,460 photos uploaded!

WunderBlogs® & News

Nearby

Air Quality

  Air Quality AQ Index Pollutant
Not available.

Snow Depth

Station Depth Elevation

Earthquake Activity

City Distance Mag. Time & Date
Minimum magnitude displayed is 2.5.

Coastal Water Temperatures

Place Temperature

Nearby Weather Stations